createdAt,value
2023-03-13T00:00:11.453Z,99551.34
2023-03-13T00:05:16.241Z,99536.06
2023-03-13T00:10:19.374Z,99553.59
2023-03-13T00:15:22.377Z,99554.97
2023-03-13T00:20:26.521Z,99546.19
2023-03-13T00:25:29.268Z,99544.66
2023-03-13T00:30:32.033Z,99547.63
2023-03-13T00:35:36.177Z,99541.69
2023-03-13T00:40:39.067Z,99544.66
2023-03-13T00:45:41.851Z,99532.63
2023-03-13T00:50:46.002Z,99533.75
2023-03-13T00:55:53.300Z,99535.75
2023-03-13T01:00:56.115Z,99532.75
2023-03-13T01:06:01.107Z,99524.00
2023-03-13T01:11:05.381Z,99527.22
2023-03-13T01:16:10.193Z,99523.00
2023-03-13T01:21:14.470Z,99514.50
2023-03-13T01:26:17.471Z,99514.94
2023-03-13T01:31:21.316Z,99504.91
2023-03-13T01:36:25.669Z,99490.06
2023-03-13T01:41:29.168Z,99486.09
2023-03-13T01:46:32.091Z,99470.56
2023-03-13T01:51:51.024Z,99470.44
2023-03-13T01:56:55.229Z,99462.47
2023-03-13T02:02:00.170Z,99455.53
2023-03-13T02:07:06.268Z,99471.44
2023-03-13T02:12:11.231Z,99446.63
2023-03-13T02:17:14.869Z,99454.09
2023-03-13T02:22:23.641Z,99459.59
2023-03-13T02:27:28.258Z,99442.06
2023-03-13T02:32:31.548Z,99435.31
2023-03-13T02:37:34.535Z,99435.56
2023-03-13T02:42:40.408Z,99420.59
2023-03-13T02:47:43.429Z,99404.94
2023-03-13T02:52:47.760Z,99399.84
2023-03-13T02:57:52.688Z,99401.69
2023-03-13T03:02:56.168Z,99386.88
2023-03-13T03:07:59.087Z,99389.69
2023-03-13T03:13:04.870Z,99383.50
2023-03-13T03:18:07.724Z,99372.91
2023-03-13T03:23:10.806Z,99370.34
2023-03-13T03:28:15.104Z,99355.53
2023-03-13T03:33:19.073Z,99348.50
2023-03-13T03:38:21.952Z,99335.22
2023-03-13T03:43:27.366Z,99337.06
2023-03-13T03:48:31.771Z,99321.09
2023-03-13T03:53:34.626Z,99319.41
2023-03-13T03:58:39.119Z,99301.66
2023-03-13T04:04:02.142Z,99281.34
2023-03-13T04:09:05.220Z,99258.50
2023-03-13T04:14:10.508Z,99278.81
2023-03-13T04:19:13.694Z,99269.22
2023-03-13T04:24:17.961Z,99260.06
2023-03-13T04:29:22.959Z,99249.50
2023-03-13T04:34:32.711Z,99236.22
2023-03-13T04:39:44.666Z,99220.13
2023-03-13T04:45:10.330Z,99211.53
2023-03-13T04:50:25.284Z,99193.66
2023-03-13T04:55:43.508Z,99175.75
2023-03-13T05:01:13.904Z,99180.41
2023-03-13T05:06:28.823Z,99163.63
2023-03-13T05:11:58.325Z,99153.91
2023-03-13T05:17:21.834Z,99152.22
2023-03-13T05:22:43.222Z,99137.97
2023-03-13T05:28:03.343Z,99135.31
2023-03-13T05:33:16.351Z,99125.53
2023-03-13T05:38:31.809Z,99103.28
2023-03-13T05:43:48.117Z,99091.72
2023-03-13T05:49:08.141Z,99071.44
2023-03-13T05:54:40.149Z,99055.47
2023-03-13T05:59:45.732Z,99053.94
2023-03-13T06:05:15.508Z,99033.47
2023-03-13T06:10:19.153Z,99029.00
2023-03-13T06:15:22.071Z,99012.06
2023-03-13T06:20:57.746Z,99010.53
2023-03-13T06:26:01.341Z,98998.97
2023-03-13T06:31:04.281Z,98991.09
2023-03-13T06:36:09.388Z,98983.06
2023-03-13T06:41:12.192Z,98980.38
2023-03-13T06:46:17.602Z,98975.03
2023-03-13T06:51:22.719Z,98966.28
2023-03-13T06:56:25.647Z,98965.44
2023-03-13T07:01:28.505Z,98953.06
2023-03-13T07:06:32.661Z,98958.41
2023-03-13T07:11:35.460Z,98962.94
2023-03-13T07:16:38.546Z,98964.59
2023-03-13T07:21:42.912Z,98967.44
2023-03-13T07:27:01.878Z,98965.88
2023-03-13T07:32:08.304Z,98956.28
2023-03-13T07:37:12.756Z,98954.47
2023-03-13T07:42:15.626Z,98945.75
2023-03-13T07:47:18.527Z,98944.06
2023-03-13T07:52:23.075Z,98937.00
2023-03-13T07:57:25.856Z,98945.28
2023-03-13T08:02:28.879Z,98927.53
2023-03-13T08:07:33.106Z,98918.66
2023-03-13T08:12:35.923Z,98934.59
2023-03-13T08:17:38.790Z,98933.47
2023-03-13T08:22:42.920Z,98909.38
2023-03-13T08:27:45.801Z,98925.44
2023-03-13T08:32:48.720Z,98927.81
2023-03-13T08:37:53.094Z,98926.28
2023-03-13T08:42:55.928Z,98920.63
2023-03-13T08:47:58.789Z,98929.66
2023-03-13T08:53:03.445Z,98936.28
2023-03-13T08:58:06.218Z,98938.69
2023-03-13T09:03:09.136Z,98939.94
2023-03-13T09:08:13.288Z,98924.06
2023-03-13T09:13:16.059Z,98945.47
2023-03-13T09:18:18.899Z,98934.78
2023-03-13T09:23:23.262Z,98943.28
2023-03-13T09:28:26.558Z,98942.25
2023-03-13T09:33:29.318Z,98929.97
2023-03-13T09:38:33.513Z,98935.00
2023-03-13T09:43:41.370Z,98935.25
2023-03-13T09:48:44.906Z,98923.69
2023-03-13T09:53:50.913Z,98921.03
2023-03-13T09:58:55.792Z,98907.63
2023-03-13T10:04:06.756Z,98929.69
2023-03-13T10:09:21.455Z,98922.94
2023-03-13T10:14:30.261Z,98931.31
2023-03-13T10:19:34.040Z,98927.63
2023-03-13T10:24:40.154Z,98908.53
2023-03-13T10:29:43.000Z,98905.22
2023-03-13T10:34:47.729Z,98914.50
2023-03-13T10:39:52.275Z,98914.50
2023-03-13T10:45:00.337Z,98918.56
2023-03-13T10:50:03.296Z,98911.81
2023-03-13T10:55:08.040Z,98892.50
2023-03-13T11:00:28.953Z,98885.44
2023-03-13T11:05:43.061Z,98885.56
2023-03-13T11:10:57.439Z,98867.94
2023-03-13T11:16:01.601Z,98854.53
2023-03-13T11:21:17.725Z,98846.63
2023-03-13T11:26:24.842Z,98829.34
2023-03-13T11:31:30.682Z,98812.25
2023-03-13T11:36:35.645Z,98810.22
2023-03-13T11:41:49.403Z,98796.03
2023-03-13T11:46:58.366Z,98780.97
2023-03-13T11:52:06.435Z,98787.63
2023-03-13T11:57:13.334Z,98769.78
2023-03-13T12:02:19.380Z,98753.84
2023-03-13T12:07:24.491Z,98752.88
2023-03-13T12:12:34.946Z,98754.91
2023-03-13T12:17:38.776Z,98764.44
2023-03-13T12:22:43.953Z,98780.53
2023-03-13T12:27:48.986Z,98780.69
2023-03-13T12:32:55.707Z,98772.91
2023-03-13T12:38:01.616Z,98780.44
2023-03-13T12:43:10.356Z,98768.03
2023-03-13T12:48:39.774Z,98731.03
2023-03-13T12:54:08.705Z,98719.81
2023-03-13T12:59:15.975Z,98750.81
2023-03-13T13:04:19.526Z,98735.56
2023-03-13T13:09:24.089Z,98733.28
2023-03-13T13:14:59.119Z,98734.81
2023-03-13T13:20:22.450Z,98731.03
2023-03-13T13:25:35.236Z,98723.84
2023-03-13T13:30:39.511Z,98699.03
2023-03-13T13:35:42.541Z,98698.97
2023-03-13T13:40:59.272Z,98702.03
2023-03-13T13:46:06.033Z,98720.47
2023-03-13T13:51:26.292Z,98709.44
2023-03-13T13:56:31.318Z,98709.78
2023-03-13T14:01:35.535Z,98697.53
2023-03-13T14:06:38.964Z,98701.03
2023-03-13T14:11:41.698Z,98694.53
2023-03-13T14:16:47.309Z,98682.50
2023-03-13T14:21:50.134Z,98681.56
2023-03-13T14:26:52.924Z,98666.31
2023-03-13T14:31:57.835Z,98664.84
2023-03-13T14:37:17.386Z,98658.47
2023-03-13T14:42:20.677Z,98659.50
2023-03-13T14:47:25.987Z,98646.09
2023-03-13T14:52:29.086Z,98649.59
2023-03-13T14:57:32.369Z,98641.56
2023-03-13T15:02:37.491Z,98647.63
2023-03-13T15:07:41.274Z,98642.06
2023-03-13T15:12:44.245Z,98634.94
2023-03-13T15:17:48.422Z,98633.09
2023-03-13T15:22:51.456Z,98627.41
2023-03-13T15:27:54.283Z,98623.22
2023-03-13T15:32:58.497Z,98615.16
2023-03-13T15:38:02.004Z,98597.00
2023-03-13T15:43:04.850Z,98577.53
2023-03-13T15:48:15.779Z,98568.63
2023-03-13T15:53:19.425Z,98554.38
2023-03-13T15:58:22.366Z,98540.47
2023-03-13T16:03:28.306Z,98531.06
2023-03-13T16:08:36.562Z,98529.53
2023-03-13T16:13:39.959Z,98506.41
2023-03-13T16:18:44.539Z,98507.97
2023-03-13T16:23:47.401Z,98496.97
2023-03-13T16:28:50.271Z,98474.41
2023-03-13T16:33:54.875Z,98466.41
2023-03-13T16:38:58.165Z,98462.13
2023-03-13T16:44:01.131Z,98462.69
2023-03-13T16:49:05.464Z,98464.75
2023-03-13T16:54:08.241Z,98449.88
2023-03-13T16:59:13.406Z,98454.59
2023-03-13T17:04:17.594Z,98442.22
2023-03-13T17:09:20.382Z,98449.78
2023-03-13T17:14:23.158Z,98461.88
2023-03-13T17:19:27.276Z,98449.81
2023-03-13T17:24:30.028Z,98445.63
2023-03-13T17:29:32.847Z,98434.94
2023-03-13T17:34:37.027Z,98437.09
2023-03-13T17:39:39.882Z,98426.06
2023-03-13T17:44:42.807Z,98414.31
2023-03-13T17:49:47.093Z,98414.31
2023-03-13T17:54:49.911Z,98435.28
2023-03-13T17:59:52.692Z,98430.44
2023-03-13T18:04:56.950Z,98418.00
2023-03-13T18:09:59.883Z,98415.00
2023-03-13T18:15:02.641Z,98403.09
2023-03-13T18:20:10.719Z,98317.06
2023-03-13T18:25:13.743Z,98251.47
2023-03-13T18:30:17.886Z,98256.84
2023-03-13T18:35:22.216Z,98286.03
2023-03-13T18:40:25.982Z,98279.66
2023-03-13T18:45:29.038Z,98280.31
2023-03-13T18:50:33.350Z,98235.38
2023-03-13T18:55:36.092Z,98266.56
2023-03-13T19:00:39.068Z,98303.81
2023-03-13T19:05:43.303Z,98260.69
2023-03-13T19:10:46.456Z,98340.38
2023-03-13T19:15:49.436Z,98360.66
2023-03-13T19:20:53.565Z,98363.84
2023-03-13T19:25:56.946Z,98363.69
2023-03-13T19:30:59.743Z,98368.22
2023-03-13T19:36:04.132Z,98356.47
2023-03-13T19:41:07.214Z,98354.31
2023-03-13T19:46:24.424Z,98338.69
2023-03-13T19:51:29.408Z,98317.75
2023-03-13T19:56:32.611Z,98293.22
2023-03-13T20:01:35.516Z,98300.44
2023-03-13T20:06:39.770Z,98307.16
2023-03-13T20:11:42.659Z,98301.81
2023-03-13T20:16:48.891Z,98289.38
2023-03-13T20:21:53.215Z,98294.41
2023-03-13T20:26:56.545Z,98297.75
2023-03-13T20:32:01.249Z,98295.25
2023-03-13T20:37:05.598Z,98308.66
2023-03-13T20:42:08.961Z,98296.72
2023-03-13T20:47:11.922Z,98293.72
2023-03-13T20:52:16.288Z,98293.72
2023-03-13T20:57:19.756Z,98295.03
2023-03-13T21:02:22.848Z,98284.81
2023-03-13T21:07:27.387Z,98303.47
2023-03-13T21:12:30.469Z,98337.16
2023-03-13T21:17:33.228Z,98355.97
2023-03-13T21:22:37.343Z,98350.94
2023-03-13T21:27:40.188Z,98343.72
2023-03-13T21:32:43.196Z,98354.13
2023-03-13T21:37:47.550Z,98355.78
2023-03-13T21:42:50.473Z,98353.09
2023-03-13T21:47:54.918Z,98352.44
2023-03-13T21:52:59.133Z,98349.59
2023-03-13T21:58:01.925Z,98339.84
2023-03-13T22:03:04.827Z,98345.38
2023-03-13T22:08:09.089Z,98348.41
2023-03-13T22:13:12.048Z,98325.78
2023-03-13T22:18:15.023Z,98319.03
2023-03-13T22:23:19.215Z,98319.38
2023-03-13T22:28:22.146Z,98299.75
2023-03-13T22:33:24.931Z,98162.16
2023-03-13T22:38:29.044Z,98140.34
2023-03-13T22:43:31.956Z,98111.16
2023-03-13T22:48:34.785Z,98153.94
2023-03-13T22:53:40.003Z,98157.47
2023-03-13T22:58:43.183Z,98165.84
2023-03-13T23:03:46.293Z,98147.88
2023-03-13T23:08:50.473Z,98157.97
2023-03-13T23:13:53.423Z,98189.69
2023-03-13T23:18:56.546Z,98190.06
2023-03-13T23:24:00.668Z,98176.09
2023-03-13T23:29:03.452Z,98172.59
2023-03-13T23:34:06.271Z,98172.75
2023-03-13T23:39:10.466Z,98173.97
2023-03-13T23:44:13.271Z,98157.84
2023-03-13T23:49:16.357Z,98161.03
2023-03-13T23:54:21.640Z,98156.69
2023-03-13T23:59:24.673Z,98137.06
